Portada
METAR-TAF:

METAR-TAF

Aeroports :

Milton, Massachusetts, Estats Units d'Amèrica

latitud: 42-12-44N, longitud: 071-06-53W, altitud: 192 m

Observació

L'informe es va fer fa 11 minuts, a les 07:56 UTC
Vent 6 kt del Sud
Temperatura 17°C
Humitat 82%
Pressió 1012 hPa

METAR: KMQE 250756Z AUTO 17006KT 17/14 A2989 RMK AO1 SLP127 T01670144

Hora: 04:07 (08:07 UTC)


TAF: manca

Observacions i pronòstics meteorològics de més de 4000 aeroports (METAR i TAF).

Les estacions disponibles són els punts grocs i vermells al mapa.

Posi el ratolí al punt desitjat per veure el nom de l'estació.

Feu clic per veure les observacions i els pronòstics meteorològics.

Per canviar el mapa: feu clic els botons verds amb una creu de color negre per apropar; al botó verd amb un guió per allunyar la imatge; o en les fletxes verdes per a mapes adjacents.


METAR-TAF: